sensor_id;sensor_type;location;lat;lon;timestamp;P1;durP1;ratioP1;P2;durP2;ratioP2
4420;SDS011;11824;51.178;13.546;2024-03-07T00:00:15;71.47;;;28.07;;
4420;SDS011;11824;51.178;13.546;2024-03-07T00:02:46;63.57;;;27.93;;
4420;SDS011;11824;51.178;13.546;2024-03-07T00:05:16;72.90;;;30.57;;
4420;SDS011;11824;51.178;13.546;2024-03-07T00:07:47;74.63;;;30.93;;
4420;SDS011;11824;51.178;13.546;2024-03-07T00:10:16;71.93;;;28.30;;
4420;SDS011;11824;51.178;13.546;2024-03-07T00:12:46;97.37;;;30.10;;
4420;SDS011;11824;51.178;13.546;2024-03-07T00:15:15;94.53;;;28.90;;
4420;SDS011;11824;51.178;13.546;2024-03-07T00:17:45;71.77;;;28.93;;
4420;SDS011;11824;51.178;13.546;2024-03-07T00:20:14;92.67;;;30.93;;
4420;SDS011;11824;51.178;13.546;2024-03-07T00:22:46;75.30;;;29.33;;
4420;SDS011;11824;51.178;13.546;2024-03-07T00:25:15;73.63;;;28.87;;
4420;SDS011;11824;51.178;13.546;2024-03-07T00:27:48;76.83;;;30.97;;
4420;SDS011;11824;51.178;13.546;2024-03-07T00:30:19;80.53;;;29.70;;
4420;SDS011;11824;51.178;13.546;2024-03-07T00:32:48;77.67;;;33.20;;
4420;SDS011;11824;51.178;13.546;2024-03-07T00:35:17;79.20;;;30.73;;
4420;SDS011;11824;51.178;13.546;2024-03-07T00:37:47;83.63;;;29.80;;
4420;SDS011;11824;51.178;13.546;2024-03-07T00:40:16;88.27;;;31.50;;
4420;SDS011;11824;51.178;13.546;2024-03-07T00:42:45;69.57;;;29.23;;
4420;SDS011;11824;51.178;13.546;2024-03-07T00:45:17;94.13;;;30.90;;
4420;SDS011;11824;51.178;13.546;2024-03-07T00:47:45;77.53;;;30.03;;
4420;SDS011;11824;51.178;13.546;2024-03-07T00:50:15;74.57;;;28.47;;
4420;SDS011;11824;51.178;13.546;2024-03-07T00:52:44;93.67;;;29.77;;
4420;SDS011;11824;51.178;13.546;2024-03-07T00:55:14;74.63;;;29.43;;
4420;SDS011;11824;51.178;13.546;2024-03-07T00:57:44;71.07;;;30.70;;
4420;SDS011;11824;51.178;13.546;2024-03-07T01:00:15;66.27;;;28.10;;
4420;SDS011;11824;51.178;13.546;2024-03-07T01:02:47;61.93;;;27.50;;
4420;SDS011;11824;51.178;13.546;2024-03-07T01:05:19;60.83;;;25.90;;
4420;SDS011;11824;51.178;13.546;2024-03-07T01:07:48;57.27;;;26.03;;
4420;SDS011;11824;51.178;13.546;2024-03-07T01:10:17;60.17;;;29.00;;
4420;SDS011;11824;51.178;13.546;2024-03-07T01:12:46;56.67;;;30.43;;
4420;SDS011;11824;51.178;13.546;2024-03-07T01:15:17;51.03;;;26.00;;
4420;SDS011;11824;51.178;13.546;2024-03-07T01:17:46;52.07;;;25.90;;
4420;SDS011;11824;51.178;13.546;2024-03-07T01:20:15;46.03;;;26.50;;
4420;SDS011;11824;51.178;13.546;2024-03-07T01:22:44;55.37;;;26.40;;
4420;SDS011;11824;51.178;13.546;2024-03-07T01:25:13;55.80;;;26.00;;
4420;SDS011;11824;51.178;13.546;2024-03-07T01:27:43;59.40;;;25.63;;
4420;SDS011;11824;51.178;13.546;2024-03-07T01:30:14;63.73;;;26.70;;
4420;SDS011;11824;51.178;13.546;2024-03-07T01:32:44;59.10;;;27.67;;
4420;SDS011;11824;51.178;13.546;2024-03-07T01:35:13;56.17;;;27.53;;
4420;SDS011;11824;51.178;13.546;2024-03-07T01:37:42;65.07;;;26.20;;
4420;SDS011;11824;51.178;13.546;2024-03-07T01:40:11;59.50;;;28.50;;
4420;SDS011;11824;51.178;13.546;2024-03-07T01:42:40;47.73;;;26.33;;
4420;SDS011;11824;51.178;13.546;2024-03-07T01:45:09;43.97;;;23.00;;
4420;SDS011;11824;51.178;13.546;2024-03-07T01:47:39;55.20;;;24.87;;
4420;SDS011;11824;51.178;13.546;2024-03-07T01:50:09;67.93;;;28.30;;
4420;SDS011;11824;51.178;13.546;2024-03-07T01:52:39;58.00;;;24.07;;
4420;SDS011;11824;51.178;13.546;2024-03-07T01:55:09;53.97;;;27.43;;
4420;SDS011;11824;51.178;13.546;2024-03-07T01:57:39;67.23;;;26.90;;
4420;SDS011;11824;51.178;13.546;2024-03-07T02:00:08;46.50;;;19.73;;
4420;SDS011;11824;51.178;13.546;2024-03-07T02:02:38;65.40;;;28.87;;
4420;SDS011;11824;51.178;13.546;2024-03-07T02:05:07;54.23;;;24.07;;
4420;SDS011;11824;51.178;13.546;2024-03-07T02:07:37;49.10;;;20.80;;
4420;SDS011;11824;51.178;13.546;2024-03-07T02:10:07;55.07;;;26.20;;
4420;SDS011;11824;51.178;13.546;2024-03-07T02:12:37;60.07;;;25.23;;
4420;SDS011;11824;51.178;13.546;2024-03-07T02:15:06;60.07;;;25.83;;
4420;SDS011;11824;51.178;13.546;2024-03-07T02:17:35;53.53;;;24.90;;
4420;SDS011;11824;51.178;13.546;2024-03-07T02:20:05;59.70;;;29.40;;
4420;SDS011;11824;51.178;13.546;2024-03-07T02:22:39;62.37;;;26.20;;
4420;SDS011;11824;51.178;13.546;2024-03-07T02:25:08;63.80;;;30.47;;
4420;SDS011;11824;51.178;13.546;2024-03-07T02:27:37;53.50;;;26.13;;
4420;SDS011;11824;51.178;13.546;2024-03-07T02:30:06;55.57;;;24.77;;
4420;SDS011;11824;51.178;13.546;2024-03-07T02:32:36;53.60;;;25.77;;
4420;SDS011;11824;51.178;13.546;2024-03-07T02:35:05;62.83;;;28.13;;
4420;SDS011;11824;51.178;13.546;2024-03-07T02:37:35;62.33;;;25.83;;
4420;SDS011;11824;51.178;13.546;2024-03-07T02:40:06;54.83;;;27.47;;
4420;SDS011;11824;51.178;13.546;2024-03-07T02:42:37;50.90;;;25.10;;
4420;SDS011;11824;51.178;13.546;2024-03-07T02:45:06;75.20;;;28.50;;
4420;SDS011;11824;51.178;13.546;2024-03-07T02:47:37;64.40;;;28.90;;
4420;SDS011;11824;51.178;13.546;2024-03-07T02:50:08;59.90;;;28.37;;
4420;SDS011;11824;51.178;13.546;2024-03-07T02:52:38;62.07;;;27.70;;
4420;SDS011;11824;51.178;13.546;2024-03-07T02:55:08;62.67;;;29.43;;
4420;SDS011;11824;51.178;13.546;2024-03-07T02:57:37;68.77;;;29.13;;
4420;SDS011;11824;51.178;13.546;2024-03-07T03:00:07;59.73;;;28.60;;
4420;SDS011;11824;51.178;13.546;2024-03-07T03:02:46;55.83;;;25.53;;
4420;SDS011;11824;51.178;13.546;2024-03-07T03:05:17;55.90;;;28.07;;
4420;SDS011;11824;51.178;13.546;2024-03-07T03:07:46;50.83;;;22.13;;
4420;SDS011;11824;51.178;13.546;2024-03-07T03:10:22;52.30;;;29.10;;
4420;SDS011;11824;51.178;13.546;2024-03-07T03:12:56;55.70;;;22.83;;
4420;SDS011;11824;51.178;13.546;2024-03-07T03:15:26;61.97;;;27.60;;
4420;SDS011;11824;51.178;13.546;2024-03-07T03:17:56;75.80;;;28.97;;
4420;SDS011;11824;51.178;13.546;2024-03-07T03:20:26;55.07;;;27.07;;
4420;SDS011;11824;51.178;13.546;2024-03-07T03:23:01;60.30;;;22.77;;
4420;SDS011;11824;51.178;13.546;2024-03-07T03:25:34;53.23;;;25.00;;
4420;SDS011;11824;51.178;13.546;2024-03-07T03:28:04;46.37;;;23.73;;
4420;SDS011;11824;51.178;13.546;2024-03-07T03:30:36;53.43;;;22.80;;
4420;SDS011;11824;51.178;13.546;2024-03-07T03:33:05;62.87;;;30.03;;
4420;SDS011;11824;51.178;13.546;2024-03-07T03:35:34;59.07;;;30.13;;
4420;SDS011;11824;51.178;13.546;2024-03-07T03:38:03;49.13;;;25.20;;
4420;SDS011;11824;51.178;13.546;2024-03-07T03:40:34;50.33;;;21.87;;
4420;SDS011;11824;51.178;13.546;2024-03-07T03:43:03;50.33;;;21.47;;
4420;SDS011;11824;51.178;13.546;2024-03-07T03:45:33;55.87;;;29.10;;
4420;SDS011;11824;51.178;13.546;2024-03-07T03:48:02;65.63;;;29.23;;
4420;SDS011;11824;51.178;13.546;2024-03-07T03:50:31;54.70;;;22.40;;
4420;SDS011;11824;51.178;13.546;2024-03-07T03:53:00;58.07;;;28.03;;
4420;SDS011;11824;51.178;13.546;2024-03-07T03:55:30;62.53;;;30.63;;
4420;SDS011;11824;51.178;13.546;2024-03-07T03:58:01;51.03;;;24.83;;
4420;SDS011;11824;51.178;13.546;2024-03-07T04:00:31;66.63;;;29.87;;
4420;SDS011;11824;51.178;13.546;2024-03-07T04:03:00;61.73;;;31.33;;
4420;SDS011;11824;51.178;13.546;2024-03-07T04:05:29;67.67;;;28.73;;
4420;SDS011;11824;51.178;13.546;2024-03-07T04:07:59;58.03;;;29.13;;
4420;SDS011;11824;51.178;13.546;2024-03-07T04:10:27;61.63;;;27.03;;
4420;SDS011;11824;51.178;13.546;2024-03-07T04:12:57;61.57;;;29.23;;
4420;SDS011;11824;51.178;13.546;2024-03-07T04:15:27;62.87;;;30.57;;
4420;SDS011;11824;51.178;13.546;2024-03-07T04:18:02;62.63;;;28.30;;
4420;SDS011;11824;51.178;13.546;2024-03-07T04:20:31;77.23;;;34.10;;
4420;SDS011;11824;51.178;13.546;2024-03-07T04:23:00;49.53;;;23.93;;
4420;SDS011;11824;51.178;13.546;2024-03-07T04:25:30;67.63;;;31.77;;
4420;SDS011;11824;51.178;13.546;2024-03-07T04:27:59;40.70;;;18.50;;
4420;SDS011;11824;51.178;13.546;2024-03-07T04:30:30;67.50;;;32.10;;
4420;SDS011;11824;51.178;13.546;2024-03-07T04:32:59;71.90;;;32.53;;
4420;SDS011;11824;51.178;13.546;2024-03-07T04:35:28;28.43;;;14.47;;
4420;SDS011;11824;51.178;13.546;2024-03-07T04:37:57;56.63;;;26.17;;
4420;SDS011;11824;51.178;13.546;2024-03-07T04:40:26;28.90;;;15.10;;
4420;SDS011;11824;51.178;13.546;2024-03-07T04:42:55;57.23;;;26.97;;
4420;SDS011;11824;51.178;13.546;2024-03-07T04:45:24;32.70;;;18.10;;
4420;SDS011;11824;51.178;13.546;2024-03-07T04:47:54;60.27;;;31.37;;
4420;SDS011;11824;51.178;13.546;2024-03-07T04:50:23;51.03;;;23.60;;
4420;SDS011;11824;51.178;13.546;2024-03-07T04:52:53;47.07;;;23.43;;
4420;SDS011;11824;51.178;13.546;2024-03-07T04:55:21;54.60;;;26.17;;
4420;SDS011;11824;51.178;13.546;2024-03-07T04:57:52;55.73;;;27.20;;
4420;SDS011;11824;51.178;13.546;2024-03-07T05:00:26;52.43;;;23.97;;
4420;SDS011;11824;51.178;13.546;2024-03-07T05:02:58;65.30;;;24.40;;
4420;SDS011;11824;51.178;13.546;2024-03-07T05:05:28;62.83;;;27.93;;
4420;SDS011;11824;51.178;13.546;2024-03-07T05:07:56;55.37;;;27.17;;
4420;SDS011;11824;51.178;13.546;2024-03-07T05:10:28;50.77;;;26.30;;
4420;SDS011;11824;51.178;13.546;2024-03-07T05:12:57;56.07;;;24.07;;
4420;SDS011;11824;51.178;13.546;2024-03-07T05:15:26;38.07;;;19.80;;
4420;SDS011;11824;51.178;13.546;2024-03-07T05:18:00;42.00;;;21.53;;
4420;SDS011;11824;51.178;13.546;2024-03-07T05:20:49;70.00;;;27.20;;
4420;SDS011;11824;51.178;13.546;2024-03-07T05:23:18;60.40;;;30.73;;
4420;SDS011;11824;51.178;13.546;2024-03-07T05:25:47;59.40;;;29.20;;
4420;SDS011;11824;51.178;13.546;2024-03-07T05:28:16;34.23;;;16.50;;
4420;SDS011;11824;51.178;13.546;2024-03-07T05:30:46;34.93;;;19.60;;
4420;SDS011;11824;51.178;13.546;2024-03-07T05:33:18;35.87;;;16.00;;
4420;SDS011;11824;51.178;13.546;2024-03-07T05:35:48;66.30;;;27.23;;
4420;SDS011;11824;51.178;13.546;2024-03-07T05:38:34;52.13;;;26.93;;
4420;SDS011;11824;51.178;13.546;2024-03-07T05:41:10;27.73;;;11.07;;
4420;SDS011;11824;51.178;13.546;2024-03-07T05:43:41;49.03;;;18.77;;
4420;SDS011;11824;51.178;13.546;2024-03-07T05:46:10;29.43;;;15.67;;
4420;SDS011;11824;51.178;13.546;2024-03-07T05:48:41;36.40;;;14.67;;
4420;SDS011;11824;51.178;13.546;2024-03-07T05:51:12;55.67;;;27.33;;
4420;SDS011;11824;51.178;13.546;2024-03-07T05:53:41;41.27;;;20.23;;
4420;SDS011;11824;51.178;13.546;2024-03-07T05:56:10;36.97;;;16.80;;
4420;SDS011;11824;51.178;13.546;2024-03-07T05:58:38;65.17;;;28.30;;
4420;SDS011;11824;51.178;13.546;2024-03-07T06:01:07;49.90;;;21.97;;
4420;SDS011;11824;51.178;13.546;2024-03-07T06:03:39;43.67;;;18.67;;
4420;SDS011;11824;51.178;13.546;2024-03-07T06:06:09;54.63;;;22.80;;
4420;SDS011;11824;51.178;13.546;2024-03-07T06:08:38;41.23;;;18.50;;
4420;SDS011;11824;51.178;13.546;2024-03-07T06:11:09;34.80;;;15.97;;
4420;SDS011;11824;51.178;13.546;2024-03-07T06:13:39;22.30;;;12.20;;
4420;SDS011;11824;51.178;13.546;2024-03-07T06:16:08;30.07;;;15.70;;
4420;SDS011;11824;51.178;13.546;2024-03-07T06:18:37;36.57;;;18.83;;
4420;SDS011;11824;51.178;13.546;2024-03-07T06:21:08;44.03;;;20.87;;
4420;SDS011;11824;51.178;13.546;2024-03-07T06:23:36;39.67;;;19.27;;
4420;SDS011;11824;51.178;13.546;2024-03-07T06:26:05;42.53;;;19.83;;
4420;SDS011;11824;51.178;13.546;2024-03-07T06:28:39;42.97;;;16.53;;
4420;SDS011;11824;51.178;13.546;2024-03-07T06:31:08;36.03;;;15.73;;
4420;SDS011;11824;51.178;13.546;2024-03-07T06:33:36;58.70;;;25.97;;
4420;SDS011;11824;51.178;13.546;2024-03-07T06:36:05;55.60;;;25.30;;
4420;SDS011;11824;51.178;13.546;2024-03-07T06:38:36;33.83;;;14.00;;
4420;SDS011;11824;51.178;13.546;2024-03-07T06:41:05;48.30;;;23.67;;
4420;SDS011;11824;51.178;13.546;2024-03-07T06:43:36;57.77;;;22.40;;
4420;SDS011;11824;51.178;13.546;2024-03-07T06:46:05;36.07;;;16.53;;
4420;SDS011;11824;51.178;13.546;2024-03-07T06:48:35;25.73;;;14.17;;
4420;SDS011;11824;51.178;13.546;2024-03-07T06:51:04;32.13;;;13.33;;
4420;SDS011;11824;51.178;13.546;2024-03-07T06:53:35;33.00;;;14.77;;
4420;SDS011;11824;51.178;13.546;2024-03-07T06:56:04;38.93;;;19.87;;
4420;SDS011;11824;51.178;13.546;2024-03-07T06:58:33;36.97;;;15.70;;
4420;SDS011;11824;51.178;13.546;2024-03-07T07:01:02;43.40;;;21.70;;
4420;SDS011;11824;51.178;13.546;2024-03-07T07:03:35;19.30;;;10.13;;
4420;SDS011;11824;51.178;13.546;2024-03-07T07:06:04;40.70;;;19.10;;
4420;SDS011;11824;51.178;13.546;2024-03-07T07:08:35;57.70;;;18.20;;
4420;SDS011;11824;51.178;13.546;2024-03-07T07:11:04;39.10;;;14.93;;
4420;SDS011;11824;51.178;13.546;2024-03-07T07:13:33;26.10;;;13.57;;
4420;SDS011;11824;51.178;13.546;2024-03-07T07:16:03;42.47;;;19.70;;
4420;SDS011;11824;51.178;13.546;2024-03-07T07:18:32;31.73;;;15.27;;
4420;SDS011;11824;51.178;13.546;2024-03-07T07:21:02;23.33;;;12.53;;
4420;SDS011;11824;51.178;13.546;2024-03-07T07:23:32;59.07;;;24.27;;
4420;SDS011;11824;51.178;13.546;2024-03-07T07:26:03;49.07;;;23.23;;
4420;SDS011;11824;51.178;13.546;2024-03-07T07:28:32;41.87;;;20.20;;
4420;SDS011;11824;51.178;13.546;2024-03-07T07:31:03;24.93;;;12.23;;
4420;SDS011;11824;51.178;13.546;2024-03-07T07:33:32;40.50;;;20.90;;
4420;SDS011;11824;51.178;13.546;2024-03-07T07:36:00;36.47;;;16.47;;
4420;SDS011;11824;51.178;13.546;2024-03-07T07:38:30;24.03;;;13.67;;
4420;SDS011;11824;51.178;13.546;2024-03-07T07:41:00;42.47;;;19.40;;
4420;SDS011;11824;51.178;13.546;2024-03-07T07:43:29;48.40;;;22.40;;
4420;SDS011;11824;51.178;13.546;2024-03-07T07:46:08;27.50;;;13.13;;
4420;SDS011;11824;51.178;13.546;2024-03-07T07:48:37;38.70;;;19.87;;
4420;SDS011;11824;51.178;13.546;2024-03-07T07:51:06;25.57;;;12.83;;
4420;SDS011;11824;51.178;13.546;2024-03-07T07:53:35;38.33;;;17.80;;
4420;SDS011;11824;51.178;13.546;2024-03-07T07:56:06;34.10;;;14.53;;
4420;SDS011;11824;51.178;13.546;2024-03-07T07:58:36;48.77;;;20.67;;
4420;SDS011;11824;51.178;13.546;2024-03-07T08:01:05;39.10;;;17.37;;
4420;SDS011;11824;51.178;13.546;2024-03-07T08:03:36;39.20;;;18.87;;
4420;SDS011;11824;51.178;13.546;2024-03-07T08:06:07;33.07;;;15.10;;
4420;SDS011;11824;51.178;13.546;2024-03-07T08:08:36;37.57;;;18.43;;
4420;SDS011;11824;51.178;13.546;2024-03-07T08:11:07;23.50;;;13.00;;
4420;SDS011;11824;51.178;13.546;2024-03-07T08:13:40;22.03;;;10.23;;
4420;SDS011;11824;51.178;13.546;2024-03-07T08:16:10;24.10;;;13.73;;
4420;SDS011;11824;51.178;13.546;2024-03-07T08:18:39;27.20;;;14.60;;
4420;SDS011;11824;51.178;13.546;2024-03-07T08:21:08;37.07;;;18.57;;
4420;SDS011;11824;51.178;13.546;2024-03-07T08:23:37;28.27;;;12.70;;
4420;SDS011;11824;51.178;13.546;2024-03-07T08:26:09;40.33;;;16.23;;
4420;SDS011;11824;51.178;13.546;2024-03-07T08:28:37;14.97;;;10.40;;
4420;SDS011;11824;51.178;13.546;2024-03-07T08:31:06;29.40;;;16.10;;
4420;SDS011;11824;51.178;13.546;2024-03-07T08:33:35;29.30;;;14.90;;
4420;SDS011;11824;51.178;13.546;2024-03-07T08:36:05;26.10;;;13.33;;
4420;SDS011;11824;51.178;13.546;2024-03-07T08:38:36;20.33;;;10.87;;
4420;SDS011;11824;51.178;13.546;2024-03-07T08:41:06;16.40;;;9.37;;
4420;SDS011;11824;51.178;13.546;2024-03-07T08:43:36;30.13;;;15.07;;
4420;SDS011;11824;51.178;13.546;2024-03-07T08:46:04;26.50;;;9.23;;
4420;SDS011;11824;51.178;13.546;2024-03-07T08:48:34;21.43;;;12.37;;
4420;SDS011;11824;51.178;13.546;2024-03-07T08:51:03;28.07;;;15.23;;
4420;SDS011;11824;51.178;13.546;2024-03-07T08:53:32;21.93;;;10.70;;
4420;SDS011;11824;51.178;13.546;2024-03-07T08:56:02;15.87;;;9.67;;
4420;SDS011;11824;51.178;13.546;2024-03-07T08:58:32;26.33;;;12.97;;
4420;SDS011;11824;51.178;13.546;2024-03-07T09:01:02;22.23;;;10.97;;
4420;SDS011;11824;51.178;13.546;2024-03-07T09:03:31;29.83;;;12.93;;
4420;SDS011;11824;51.178;13.546;2024-03-07T09:06:04;20.17;;;9.03;;
4420;SDS011;11824;51.178;13.546;2024-03-07T09:08:33;35.60;;;15.97;;
4420;SDS011;11824;51.178;13.546;2024-03-07T09:11:03;26.80;;;10.63;;
4420;SDS011;11824;51.178;13.546;2024-03-07T09:13:37;25.43;;;12.53;;
4420;SDS011;11824;51.178;13.546;2024-03-07T09:16:09;17.50;;;9.93;;
4420;SDS011;11824;51.178;13.546;2024-03-07T09:18:39;23.77;;;10.67;;
4420;SDS011;11824;51.178;13.546;2024-03-07T09:21:09;23.60;;;12.53;;
4420;SDS011;11824;51.178;13.546;2024-03-07T09:23:40;14.53;;;9.47;;
4420;SDS011;11824;51.178;13.546;2024-03-07T09:26:19;20.33;;;10.27;;
4420;SDS011;11824;51.178;13.546;2024-03-07T09:28:57;16.23;;;9.90;;
4420;SDS011;11824;51.178;13.546;2024-03-07T09:31:30;27.63;;;11.40;;
4420;SDS011;11824;51.178;13.546;2024-03-07T09:33:59;16.53;;;8.47;;
4420;SDS011;11824;51.178;13.546;2024-03-07T09:36:34;13.43;;;7.30;;
4420;SDS011;11824;51.178;13.546;2024-03-07T09:39:30;20.40;;;11.93;;
4420;SDS011;11824;51.178;13.546;2024-03-07T09:42:26;14.30;;;7.00;;
4420;SDS011;11824;51.178;13.546;2024-03-07T09:45:27;23.47;;;11.50;;
4420;SDS011;11824;51.178;13.546;2024-03-07T09:55:20;13.93;;;8.70;;
4420;SDS011;11824;51.178;13.546;2024-03-07T09:58:17;17.57;;;9.80;;
4420;SDS011;11824;51.178;13.546;2024-03-07T10:01:15;13.77;;;8.80;;
4420;SDS011;11824;51.178;13.546;2024-03-07T10:04:01;20.87;;;11.90;;
4420;SDS011;11824;51.178;13.546;2024-03-07T10:06:38;19.93;;;10.50;;
4420;SDS011;11824;51.178;13.546;2024-03-07T10:09:22;27.10;;;13.90;;
4420;SDS011;11824;51.178;13.546;2024-03-07T10:11:59;19.47;;;11.40;;
4420;SDS011;11824;51.178;13.546;2024-03-07T10:14:48;20.60;;;11.27;;
4420;SDS011;11824;51.178;13.546;2024-03-07T10:17:45;18.03;;;9.87;;
4420;SDS011;11824;51.178;13.546;2024-03-07T10:20:42;26.73;;;13.50;;
4420;SDS011;11824;51.178;13.546;2024-03-07T10:23:38;21.97;;;11.23;;
4420;SDS011;11824;51.178;13.546;2024-03-07T10:26:08;13.43;;;8.30;;
4420;SDS011;11824;51.178;13.546;2024-03-07T10:28:40;20.70;;;12.70;;
4420;SDS011;11824;51.178;13.546;2024-03-07T10:31:10;20.70;;;10.07;;
4420;SDS011;11824;51.178;13.546;2024-03-07T10:33:42;21.90;;;13.37;;
4420;SDS011;11824;51.178;13.546;2024-03-07T10:36:14;15.77;;;9.00;;
4420;SDS011;11824;51.178;13.546;2024-03-07T10:38:43;22.57;;;9.83;;
4420;SDS011;11824;51.178;13.546;2024-03-07T10:41:12;13.17;;;9.00;;
4420;SDS011;11824;51.178;13.546;2024-03-07T10:43:43;21.73;;;13.30;;
4420;SDS011;11824;51.178;13.546;2024-03-07T10:46:19;20.07;;;8.93;;
4420;SDS011;11824;51.178;13.546;2024-03-07T10:48:49;17.83;;;10.60;;
4420;SDS011;11824;51.178;13.546;2024-03-07T10:51:25;17.20;;;8.97;;
4420;SDS011;11824;51.178;13.546;2024-03-07T10:53:59;17.17;;;9.70;;
4420;SDS011;11824;51.178;13.546;2024-03-07T10:56:39;22.53;;;10.87;;
4420;SDS011;11824;51.178;13.546;2024-03-07T10:59:24;19.97;;;12.67;;
4420;SDS011;11824;51.178;13.546;2024-03-07T11:01:57;12.63;;;6.97;;
4420;SDS011;11824;51.178;13.546;2024-03-07T11:04:34;16.83;;;10.53;;
4420;SDS011;11824;51.178;13.546;2024-03-07T11:07:03;18.73;;;8.50;;
4420;SDS011;11824;51.178;13.546;2024-03-07T11:09:32;19.80;;;8.70;;
4420;SDS011;11824;51.178;13.546;2024-03-07T11:12:01;19.23;;;9.47;;
4420;SDS011;11824;51.178;13.546;2024-03-07T11:14:34;25.63;;;6.70;;
4420;SDS011;11824;51.178;13.546;2024-03-07T11:17:04;13.40;;;7.37;;
4420;SDS011;11824;51.178;13.546;2024-03-07T11:19:35;8.43;;;6.17;;
4420;SDS011;11824;51.178;13.546;2024-03-07T11:22:05;12.30;;;7.30;;
4420;SDS011;11824;51.178;13.546;2024-03-07T11:24:42;21.67;;;11.30;;
4420;SDS011;11824;51.178;13.546;2024-03-07T11:27:12;29.90;;;12.03;;
4420;SDS011;11824;51.178;13.546;2024-03-07T11:29:46;28.60;;;15.37;;
4420;SDS011;11824;51.178;13.546;2024-03-07T11:32:20;10.17;;;5.83;;
4420;SDS011;11824;51.178;13.546;2024-03-07T11:34:53;24.67;;;12.67;;
4420;SDS011;11824;51.178;13.546;2024-03-07T11:37:37;17.33;;;9.50;;
4420;SDS011;11824;51.178;13.546;2024-03-07T11:40:10;16.10;;;8.27;;
4420;SDS011;11824;51.178;13.546;2024-03-07T11:42:48;17.70;;;11.90;;
4420;SDS011;11824;51.178;13.546;2024-03-07T11:45:19;10.80;;;7.20;;
4420;SDS011;11824;51.178;13.546;2024-03-07T11:47:53;13.90;;;8.60;;
4420;SDS011;11824;51.178;13.546;2024-03-07T11:50:27;19.30;;;11.70;;
4420;SDS011;11824;51.178;13.546;2024-03-07T11:53:02;19.03;;;10.83;;
4420;SDS011;11824;51.178;13.546;2024-03-07T11:55:32;15.43;;;8.30;;
4420;SDS011;11824;51.178;13.546;2024-03-07T11:58:09;19.00;;;9.67;;
4420;SDS011;11824;51.178;13.546;2024-03-07T12:00:42;12.57;;;7.57;;
4420;SDS011;11824;51.178;13.546;2024-03-07T12:03:13;20.07;;;10.47;;
4420;SDS011;11824;51.178;13.546;2024-03-07T12:05:45;14.43;;;8.43;;
4420;SDS011;11824;51.178;13.546;2024-03-07T12:08:14;12.17;;;7.37;;
4420;SDS011;11824;51.178;13.546;2024-03-07T12:10:44;26.03;;;13.70;;
4420;SDS011;11824;51.178;13.546;2024-03-07T12:13:15;24.10;;;12.40;;
4420;SDS011;11824;51.178;13.546;2024-03-07T12:15:47;12.37;;;6.30;;
4420;SDS011;11824;51.178;13.546;2024-03-07T12:18:18;11.70;;;7.93;;
4420;SDS011;11824;51.178;13.546;2024-03-07T12:20:49;19.80;;;10.50;;
4420;SDS011;11824;51.178;13.546;2024-03-07T12:23:22;16.07;;;9.60;;
4420;SDS011;11824;51.178;13.546;2024-03-07T12:25:59;10.87;;;8.30;;
4420;SDS011;11824;51.178;13.546;2024-03-07T12:28:30;19.47;;;11.70;;
4420;SDS011;11824;51.178;13.546;2024-03-07T12:36:33;24.77;;;12.90;;
4420;SDS011;11824;51.178;13.546;2024-03-07T12:39:21;13.80;;;8.47;;
4420;SDS011;11824;51.178;13.546;2024-03-07T12:41:52;22.03;;;10.03;;
4420;SDS011;11824;51.178;13.546;2024-03-07T12:44:23;21.70;;;13.83;;
4420;SDS011;11824;51.178;13.546;2024-03-07T12:46:54;18.77;;;10.17;;
4420;SDS011;11824;51.178;13.546;2024-03-07T12:49:23;20.33;;;10.20;;
4420;SDS011;11824;51.178;13.546;2024-03-07T12:51:53;21.17;;;12.10;;
4420;SDS011;11824;51.178;13.546;2024-03-07T12:54:23;23.37;;;11.90;;
4420;SDS011;11824;51.178;13.546;2024-03-07T12:56:53;18.47;;;10.17;;
4420;SDS011;11824;51.178;13.546;2024-03-07T12:59:22;31.47;;;14.13;;
4420;SDS011;11824;51.178;13.546;2024-03-07T13:01:51;31.67;;;15.10;;
4420;SDS011;11824;51.178;13.546;2024-03-07T13:04:23;12.77;;;8.40;;
4420;SDS011;11824;51.178;13.546;2024-03-07T13:06:53;21.60;;;11.93;;
4420;SDS011;11824;51.178;13.546;2024-03-07T13:09:25;22.23;;;10.00;;
4420;SDS011;11824;51.178;13.546;2024-03-07T13:11:54;22.10;;;12.80;;
4420;SDS011;11824;51.178;13.546;2024-03-07T13:14:23;14.17;;;7.07;;
4420;SDS011;11824;51.178;13.546;2024-03-07T13:16:53;15.90;;;7.20;;
4420;SDS011;11824;51.178;13.546;2024-03-07T13:19:22;28.63;;;14.10;;
4420;SDS011;11824;51.178;13.546;2024-03-07T13:21:52;26.33;;;15.10;;
4420;SDS011;11824;51.178;13.546;2024-03-07T13:24:22;41.60;;;19.30;;
4420;SDS011;11824;51.178;13.546;2024-03-07T13:26:51;29.13;;;8.33;;
4420;SDS011;11824;51.178;13.546;2024-03-07T13:29:20;27.17;;;14.20;;
4420;SDS011;11824;51.178;13.546;2024-03-07T13:31:51;27.57;;;13.73;;
4420;SDS011;11824;51.178;13.546;2024-03-07T13:34:23;16.30;;;10.53;;
4420;SDS011;11824;51.178;13.546;2024-03-07T13:36:52;17.27;;;9.67;;
4420;SDS011;11824;51.178;13.546;2024-03-07T13:39:23;21.40;;;12.00;;
4420;SDS011;11824;51.178;13.546;2024-03-07T13:41:52;28.83;;;13.80;;
4420;SDS011;11824;51.178;13.546;2024-03-07T13:44:21;45.47;;;22.87;;
4420;SDS011;11824;51.178;13.546;2024-03-07T13:46:51;26.20;;;13.03;;
4420;SDS011;11824;51.178;13.546;2024-03-07T13:49:22;21.90;;;10.33;;
4420;SDS011;11824;51.178;13.546;2024-03-07T13:51:54;28.53;;;13.93;;
4420;SDS011;11824;51.178;13.546;2024-03-07T13:54:30;28.17;;;16.47;;
4420;SDS011;11824;51.178;13.546;2024-03-07T13:57:05;24.13;;;11.30;;
4420;SDS011;11824;51.178;13.546;2024-03-07T14:06:05;28.27;;;14.57;;
4420;SDS011;11824;51.178;13.546;2024-03-07T14:08:55;33.30;;;15.93;;
4420;SDS011;11824;51.178;13.546;2024-03-07T14:11:49;23.40;;;13.17;;
4420;SDS011;11824;51.178;13.546;2024-03-07T14:18:09;21.17;;;11.73;;
4420;SDS011;11824;51.178;13.546;2024-03-07T14:21:23;19.70;;;9.80;;
4420;SDS011;11824;51.178;13.546;2024-03-07T14:24:23;21.83;;;11.40;;
4420;SDS011;11824;51.178;13.546;2024-03-07T14:27:18;18.80;;;6.87;;
4420;SDS011;11824;51.178;13.546;2024-03-07T14:29:56;20.03;;;11.40;;
4420;SDS011;11824;51.178;13.546;2024-03-07T14:32:38;11.10;;;7.10;;
4420;SDS011;11824;51.178;13.546;2024-03-07T14:35:13;15.20;;;9.60;;
4420;SDS011;11824;51.178;13.546;2024-03-07T14:37:53;15.33;;;9.67;;
4420;SDS011;11824;51.178;13.546;2024-03-07T14:40:33;17.40;;;10.70;;
4420;SDS011;11824;51.178;13.546;2024-03-07T14:43:01;18.63;;;11.87;;
4420;SDS011;11824;51.178;13.546;2024-03-07T14:45:35;57.33;;;20.97;;
4420;SDS011;11824;51.178;13.546;2024-03-07T14:48:06;19.37;;;11.60;;
4420;SDS011;11824;51.178;13.546;2024-03-07T14:50:37;18.57;;;10.53;;
4420;SDS011;11824;51.178;13.546;2024-03-07T14:53:09;72.10;;;32.23;;
4420;SDS011;11824;51.178;13.546;2024-03-07T14:55:38;42.97;;;21.10;;
4420;SDS011;11824;51.178;13.546;2024-03-07T14:58:08;29.00;;;14.80;;
4420;SDS011;11824;51.178;13.546;2024-03-07T15:00:38;45.63;;;19.53;;
4420;SDS011;11824;51.178;13.546;2024-03-07T15:03:22;36.83;;;16.37;;
4420;SDS011;11824;51.178;13.546;2024-03-07T15:05:52;28.87;;;15.50;;
4420;SDS011;11824;51.178;13.546;2024-03-07T15:08:23;26.43;;;9.90;;
4420;SDS011;11824;51.178;13.546;2024-03-07T15:10:56;19.73;;;11.20;;
4420;SDS011;11824;51.178;13.546;2024-03-07T15:13:39;31.40;;;16.80;;